Time;durP1;ratioP1;P1;durP2;ratioP2;P2;SDS_P1;SDS_P2;PMS_P1;PMS_P2;Temp;Humidity;BMP_temperature;BMP_pressure;BME280_temperature;BME280_humidity;BME280_pressure;Samples;Min_cycle;Max_cycle;Signal;HPM_P1;HPM_P2
2022/04/23 00:02:20;;;;;;;16.90;14.13;;;8.50;1.00;;;;;;5077127;28;20411;-78
2022/04/23 00:04:48;;;;;;;13.70;12.30;;;8.50;99.90;;;;;;5076733;28;20525;-77
2022/04/23 00:07:15;;;;;;;15.77;14.20;;;8.50;99.90;;;;;;5076932;28;20454;-77
2022/04/23 00:09:41;;;;;;;13.77;12.40;;;8.50;1.00;;;;;;5077125;28;20488;-78
2022/04/23 00:12:08;;;;;;;13.83;12.50;;;8.50;1.00;;;;;;5077112;28;20423;-78
2022/04/23 00:14:35;;;;;;;16.63;14.30;;;8.50;99.90;;;;;;5076630;28;20428;-77
2022/04/23 00:17:02;;;;;;;15.47;12.67;;;8.40;93.40;;;;;;5076717;28;20812;-77
2022/04/23 00:19:28;;;;;;;16.13;13.53;;;8.40;1.00;;;;;;5076654;28;20422;-77
2022/04/23 00:21:58;;;;;;;15.83;12.80;;;8.40;40.40;;;;;;5076372;28;20493;-77
2022/04/23 00:24:24;;;;;;;15.63;13.27;;;8.20;99.90;;;;;;5076428;28;20427;-78
2022/04/23 00:26:51;;;;;;;18.43;15.10;;;8.30;99.90;;;;;;5076657;28;20857;-78
2022/04/23 00:29:18;;;;;;;14.33;12.90;;;8.30;1.00;;;;;;5076985;28;20466;-78
2022/04/23 00:31:44;;;;;;;16.00;14.37;;;8.20;1.00;;;;;;5080346;28;20434;-78
2022/04/23 00:34:12;;;;;;;16.33;14.17;;;8.20;1.00;;;;;;5083593;28;20484;-78
2022/04/23 00:36:38;;;;;;;16.73;14.23;;;8.20;1.00;;;;;;5076636;28;21028;-78
2022/04/23 00:39:06;;;;;;;18.43;16.37;;;8.10;1.00;;;;;;5076732;28;20997;-78
2022/04/23 00:41:46;;;;;;;15.93;14.23;;;8.10;1.00;;;;;;5077558;28;20471;-77
2022/04/23 00:44:13;;;;;;;16.40;14.77;;;8.10;1.00;;;;;;5076818;28;20398;-77
2022/04/23 00:46:40;;;;;;;15.35;13.80;;;8.10;1.00;;;;;;5076672;28;20448;-77
2022/04/23 00:49:07;;;;;;;15.80;14.10;;;8.10;1.00;;;;;;5076863;28;20201;-77
2022/04/23 00:51:33;;;;;;;15.90;14.30;;;8.00;1.00;;;;;;5077765;28;20490;-77
2022/04/23 00:54:04;;;;;;;15.80;14.20;;;8.00;1.00;;;;;;5076683;28;20892;-77
2022/04/23 00:56:32;;;;;;;16.15;14.55;;;8.00;1.00;;;;;;5076361;28;20449;-77
2022/04/23 00:58:59;;;;;;;18.27;14.30;;;8.00;99.90;;;;;;5075993;28;20257;-78
2022/04/23 01:01:26;;;;;;;16.87;15.07;;;7.90;1.00;;;;;;5075964;28;20447;-78
2022/04/23 01:03:54;;;;;;;16.67;14.90;;;8.00;1.00;;;;;;5075378;28;20426;-78
2022/04/23 01:06:23;;;;;;;18.30;15.50;;;7.90;99.90;;;;;;5075545;28;20474;-78
2022/04/23 01:08:50;;;;;;;16.27;13.53;;;7.90;99.90;;;;;;5074922;28;20458;-78
2022/04/23 01:11:17;;;;;;;15.50;13.90;;;7.90;99.90;;;;;;5076026;28;20426;-77
2022/04/23 01:13:45;;;;;;;17.67;15.87;;;7.80;99.90;;;;;;5075651;28;20850;-77
2022/04/23 01:16:12;;;;;;;17.70;15.13;;;7.80;1.00;;;;;;5075629;28;20477;-77
2022/04/23 01:18:42;;;;;;;17.02;14.82;;;7.80;1.00;;;;;;5076457;28;20448;-77
2022/04/23 01:21:10;;;;;;;16.92;15.13;;;7.80;1.00;;;;;;5076752;28;20219;-77
2022/04/23 01:23:40;;;;;;;16.30;14.60;;;7.80;1.00;;;;;;5075679;28;20203;-77
2022/04/23 01:26:08;;;;;;;17.10;15.38;;;7.70;1.00;;;;;;5075354;28;20236;-78
2022/04/23 01:28:36;;;;;;;18.42;14.68;;;7.80;99.90;;;;;;5074771;28;20207;-78
2022/04/23 01:31:03;;;;;;;16.65;13.85;;;7.70;99.90;;;;;;5075010;28;20278;-78
2022/04/23 01:33:30;;;;;;;16.77;15.02;;;7.70;99.90;;;;;;5075451;28;20565;-77
2022/04/23 01:35:57;;;;;;;17.17;14.82;;;7.70;99.90;;;;;;5074377;28;20239;-77
2022/04/23 01:38:25;;;;;;;16.65;14.98;;;7.70;99.90;;;;;;5074947;28;20250;-78
2022/04/23 01:40:51;;;;;;;17.55;15.70;;;7.60;99.90;;;;;;5076231;28;20337;-78
2022/04/23 01:43:18;;;;;;;17.60;15.70;;;7.60;99.90;;;;;;5075133;28;20575;-77
2022/04/23 01:45:45;;;;;;;17.27;15.40;;;7.60;1.00;;;;;;5074553;28;20736;-79
2022/04/23 01:48:11;;;;;;;17.70;14.95;;;7.60;99.90;;;;;;5075674;28;20443;-78
2022/04/23 01:50:38;;;;;;;17.98;16.08;;;7.60;99.90;;;;;;5075445;28;20204;-77
2022/04/23 01:53:05;;;;;;;16.77;15.02;;;7.60;99.90;;;;;;5075248;28;20260;-77
2022/04/23 01:55:33;;;;;;;17.25;15.23;;;7.90;79.80;;;;;;5074864;28;20226;-77
2022/04/23 01:58:02;;;;;;;18.92;15.70;;;7.60;1.00;;;;;;5075291;28;20238;-78
2022/04/23 02:00:29;;;;;;;17.70;15.40;;;7.60;1.00;;;;;;5074668;28;20196;-77
2022/04/23 02:02:57;;;;;;;18.50;15.25;;;7.60;1.00;;;;;;5074900;28;20231;-77
2022/04/23 02:05:24;;;;;;;20.40;15.90;;;7.50;1.00;;;;;;5074790;28;20224;-76
2022/04/23 02:07:50;;;;;;;19.45;15.93;;;7.50;1.00;;;;;;5074340;28;20241;-77
2022/04/23 02:10:17;;;;;;;16.27;14.60;;;7.40;99.90;;;;;;5074476;28;20234;-78
2022/04/23 02:12:46;;;;;;;19.17;15.60;;;7.20;99.90;;;;;;5074487;28;20230;-77
2022/04/23 02:15:15;;;;;;;16.95;15.10;;;7.60;99.90;;;;;;5074753;28;20314;-76
2022/04/23 02:17:42;;;;;;;16.13;14.50;;;7.60;1.00;;;;;;5074542;28;20212;-77
2022/04/23 02:20:11;;;;;;;17.90;16.00;;;7.60;1.00;;;;;;5073808;28;20500;-78
2022/04/23 02:22:38;;;;;;;16.65;14.90;;;7.60;1.00;;;;;;5074308;28;20479;-77
2022/04/23 02:25:07;;;;;;;17.35;14.75;;;7.60;1.00;;;;;;5075122;28;20216;-77
2022/04/23 02:27:41;;;;;;;20.85;13.77;;;7.70;99.90;;;;;;5075397;28;20645;-77
2022/04/23 02:30:11;;;;;;;16.27;14.55;;;7.70;99.90;;;;;;5074546;28;20545;-77
2022/04/23 02:32:37;;;;;;;16.33;14.65;;;7.70;99.90;;;;;;5079407;28;20206;-77
2022/04/23 02:35:05;;;;;;;16.10;14.40;;;7.70;67.70;;;;;;5073978;28;20257;-77
2022/04/23 02:37:34;;;;;;;17.83;15.27;;;7.60;99.90;;;;;;5074623;28;20430;-77
2022/04/23 02:40:01;;;;;;;17.33;15.50;;;7.60;99.90;;;;;;5074808;28;20207;-77
2022/04/23 02:42:28;;;;;;;16.45;14.65;;;7.60;99.90;;;;;;5074960;28;20476;-78
2022/04/23 02:44:55;;;;;;;15.77;14.00;;;7.50;99.90;;;;;;5074006;28;20220;-77
2022/04/23 02:47:23;;;;;;;17.70;14.50;;;7.50;99.90;;;;;;5073799;28;20551;-77
2022/04/23 02:49:50;;;;;;;16.10;14.48;;;7.60;99.90;;;;;;5074495;28;20253;-78
2022/04/23 02:52:16;;;;;;;17.58;15.73;;;7.50;99.90;;;;;;5074737;28;20626;-77
2022/04/23 02:54:43;;;;;;;15.20;13.70;;;7.50;99.90;;;;;;5073291;28;20725;-76
2022/04/23 02:57:11;;;;;;;16.77;14.95;;;7.40;99.90;;;;;;5073849;28;20205;-77
2022/04/23 02:59:39;;;;;;;16.83;15.02;;;7.40;1.00;;;;;;5074951;28;20208;-77
2022/04/23 03:02:05;;;;;;;17.38;15.43;;;7.40;1.00;;;;;;5073671;28;20209;-78
2022/04/23 03:04:33;;;;;;;16.75;13.55;;;7.70;1.00;;;;;;5073471;28;20205;-77
2022/04/23 03:07:01;;;;;;;15.52;13.93;;;7.30;1.00;;;;;;5073748;28;20698;-78
2022/04/23 03:09:27;;;;;;;17.52;14.40;;;7.30;1.00;;;;;;5073704;28;20302;-78
2022/04/23 03:11:54;;;;;;;16.27;14.55;;;7.30;1.00;;;;;;5074081;28;20625;-77
2022/04/23 03:14:21;;;;;;;16.95;15.15;;;7.30;1.00;;;;;;5073895;28;20235;-77
2022/04/23 03:16:48;;;;;;;16.98;15.25;;;7.30;1.00;;;;;;5073983;28;20203;-77
2022/04/23 03:19:14;;;;;;;16.38;14.70;;;7.20;99.90;;;;;;5074127;28;20232;-78
2022/04/23 03:21:42;;;;;;;16.85;14.63;;;7.20;93.30;;;;;;5073578;28;20208;-78
2022/04/23 03:24:09;;;;;;;15.13;13.57;;;7.20;77.10;;;;;;5074360;28;20230;-78
2022/04/23 03:26:35;;;;;;;16.10;14.07;;;7.20;1.00;;;;;;5073258;28;20260;-77
2022/04/23 03:29:03;;;;;;;17.80;14.55;;;7.30;99.90;;;;;;5073679;28;20236;-77
2022/04/23 03:31:29;;;;;;;16.17;14.48;;;7.20;1.00;;;;;;5076211;28;20265;-77
2022/04/23 03:33:56;;;;;;;17.65;14.88;;;7.20;1.00;;;;;;5077008;28;20255;-77
2022/04/23 03:36:23;;;;;;;18.13;14.80;;;7.20;1.00;;;;;;5076711;28;20780;-77
2022/04/23 03:38:51;;;;;;;19.20;15.35;;;7.20;99.90;;;;;;5077028;28;20225;-77
2022/04/23 03:41:17;;;;;;;18.73;15.10;;;7.10;1.00;;;;;;5076839;28;20236;-77
2022/04/23 03:43:44;;;;;;;16.15;14.43;;;7.00;1.00;;;;;;5076754;28;20198;-78
2022/04/23 03:46:11;;;;;;;20.90;16.40;;;7.00;32.80;;;;;;5076797;28;20230;-78
2022/04/23 03:48:38;;;;;;;20.17;15.80;;;6.90;99.90;;;;;;5076768;28;20370;-77
2022/04/23 03:51:05;;;;;;;19.35;16.02;;;6.90;99.90;;;;;;5076631;28;20255;-77
2022/04/23 03:53:31;;;;;;;17.77;15.40;;;6.90;99.90;;;;;;5077390;28;20223;-77
2022/04/23 03:55:59;;;;;;;19.50;15.30;;;6.90;99.90;;;;;;5076414;28;20222;-77
2022/04/23 03:58:26;;;;;;;19.75;16.95;;;6.80;1.00;;;;;;5077083;28;20187;-78
2022/04/23 04:00:53;;;;;;;18.65;14.85;;;6.80;1.00;;;;;;5076330;28;20206;-77
2022/04/23 04:03:19;;;;;;;17.83;15.45;;;6.80;1.00;;;;;;5076507;28;20231;-78
2022/04/23 04:05:48;;;;;;;19.92;15.02;;;6.80;1.00;;;;;;5076331;28;20255;-77
2022/04/23 04:08:14;;;;;;;19.73;14.60;;;6.80;1.00;;;;;;5076577;28;20293;-77
2022/04/23 04:10:41;;;;;;;18.20;15.15;;;6.80;1.00;;;;;;5076899;28;20258;-77
2022/04/23 04:13:09;;;;;;;20.20;16.70;;;6.80;1.00;;;;;;5078636;28;20242;-77
2022/04/23 04:15:36;;;;;;;16.80;14.55;;;6.80;1.00;;;;;;5077164;28;20772;-77
2022/04/23 04:18:03;;;;;;;18.27;15.27;;;6.80;1.00;;;;;;5077067;28;20226;-77
2022/04/23 04:20:32;;;;;;;20.88;16.55;;;6.90;1.00;;;;;;5076898;28;20249;-78
2022/04/23 04:22:59;;;;;;;20.40;15.95;;;6.90;1.00;;;;;;5076703;28;20282;-78
2022/04/23 04:25:25;;;;;;;18.33;14.20;;;6.90;1.00;;;;;;5076570;28;20250;-77
2022/04/23 04:27:52;;;;;;;16.90;14.95;;;6.90;1.00;;;;;;5077431;28;20203;-77
2022/04/23 04:30:20;;;;;;;19.35;16.10;;;6.90;99.90;;;;;;5078341;28;20597;-78
2022/04/23 04:32:47;;;;;;;21.83;15.75;;;6.80;99.90;;;;;;5083253;28;20320;-78
2022/04/23 04:35:14;;;;;;;17.45;15.13;;;6.90;99.90;;;;;;5078087;28;20244;-78
2022/04/23 04:37:40;;;;;;;20.83;15.68;;;7.00;99.90;;;;;;5076718;28;20192;-78
2022/04/23 04:40:08;;;;;;;16.45;14.20;;;7.00;19.60;;;;;;5075935;28;20584;-77
2022/04/23 04:42:35;;;;;;;15.70;14.00;;;7.00;1.00;;;;;;5074984;28;20208;-77
2022/04/23 04:45:01;;;;;;;16.10;14.10;;;6.70;1.00;;;;;;5076449;28;20716;-77
2022/04/23 04:47:30;;;;;;;18.55;15.07;;;7.00;1.00;;;;;;5076453;28;20258;-77
2022/04/23 04:49:57;;;;;;;19.13;15.13;;;7.10;1.00;;;;;;5076630;28;20238;-77
2022/04/23 04:52:23;;;;;;;16.95;14.35;;;7.10;1.00;;;;;;5076570;28;20478;-77
2022/04/23 04:54:50;;;;;;;16.45;14.65;;;7.10;1.00;;;;;;5076057;28;20496;-77
2022/04/23 04:57:17;;;;;;;20.90;15.18;;;7.10;1.00;;;;;;5076796;28;20247;-77
2022/04/23 04:59:44;;;;;;;15.52;13.93;;;7.10;1.00;;;;;;5076047;28;20207;-78
2022/04/23 05:02:10;;;;;;;18.02;15.15;;;7.10;99.90;;;;;;5075955;28;20255;-78
2022/04/23 05:04:38;;;;;;;17.85;15.45;;;6.90;1.00;;;;;;5076181;28;20268;-78
2022/04/23 05:07:05;;;;;;;20.10;15.00;;;7.20;99.90;;;;;;5075553;28;20217;-78
2022/04/23 05:09:32;;;;;;;16.38;14.68;;;7.20;99.90;;;;;;5075602;28;20484;-77
2022/04/23 05:11:58;;;;;;;17.00;15.10;;;7.30;99.90;;;;;;5074974;28;20205;-77
2022/04/23 05:14:25;;;;;;;15.63;13.90;;;7.30;97.90;;;;;;5073890;28;20533;-76
2022/04/23 05:16:51;;;;;;;16.50;14.87;;;7.40;1.00;;;;;;5075082;28;20205;-76
2022/04/23 05:19:18;;;;;;;18.83;13.80;;;7.40;1.00;;;;;;5075002;28;20484;-77
2022/04/23 05:21:46;;;;;;;16.30;14.37;;;7.50;1.00;;;;;;5075093;28;20474;-76
2022/04/23 05:24:13;;;;;;;16.70;14.47;;;7.50;1.00;;;;;;5074811;28;20471;-77
2022/04/23 05:26:39;;;;;;;17.80;14.27;;;7.50;99.90;;;;;;5075009;28;20500;-77
2022/04/23 05:29:06;;;;;;;18.87;14.80;;;7.60;99.90;;;;;;5076686;28;20455;-77
2022/04/23 05:31:33;;;;;;;18.40;14.70;;;7.60;99.90;;;;;;5077610;28;20488;-77
2022/04/23 05:33:59;;;;;;;17.05;14.75;;;7.70;99.90;;;;;;5076103;28;20476;-78
2022/04/23 05:36:26;;;;;;;17.00;14.53;;;7.70;1.00;;;;;;5077024;28;20258;-77
2022/04/23 05:38:54;;;;;;;16.30;13.33;;;7.80;1.00;;;;;;5075104;28;20480;-77
2022/04/23 05:41:21;;;;;;;17.47;13.40;;;7.80;1.00;;;;;;5074485;28;20530;-77
2022/04/23 05:43:47;;;;;;;15.30;13.70;;;7.90;99.90;;;;;;5074385;28;20473;-77
2022/04/23 05:46:16;;;;;;;14.70;13.10;;;7.90;99.90;;;;;;5074028;28;20989;-77
2022/04/23 05:48:42;;;;;;;16.50;12.90;;;8.00;99.90;;;;;;5074254;28;20457;-77
2022/04/23 05:51:09;;;;;;;13.27;11.87;;;8.10;1.00;;;;;;5074312;28;20481;-77
2022/04/23 05:53:36;;;;;;;15.03;13.30;;;8.20;51.00;;;;;;5074295;28;20505;-77
2022/04/23 05:56:04;;;;;;;14.93;13.53;;;8.30;1.00;;;;;;5073982;28;20480;-77
2022/04/23 05:58:31;;;;;;;16.83;13.27;;;8.40;1.00;;;;;;5074808;28;20523;-77
2022/04/23 06:00:57;;;;;;;14.43;12.93;;;8.50;99.90;;;;;;5074385;28;20530;-78
2022/04/23 06:03:24;;;;;;;15.20;13.30;;;8.60;99.90;;;;;;5074199;28;20896;-77
2022/04/23 06:05:51;;;;;;;16.50;14.10;;;8.70;99.90;;;;;;5073925;28;20527;-78
2022/04/23 06:08:18;;;;;;;15.70;12.60;;;8.90;99.90;;;;;;5074386;28;20427;-77
2022/04/23 06:10:44;;;;;;;15.10;11.87;;;8.80;99.90;;;;;;5074057;28;20441;-78
2022/04/23 06:13:12;;;;;;;13.10;11.80;;;8.90;54.00;;;;;;5073972;28;20448;-78
2022/04/23 06:15:39;;;;;;;18.10;12.60;;;9.00;8.70;;;;;;5074018;28;20511;-77
2022/04/23 06:18:06;;;;;;;13.30;11.60;;;9.10;1.00;;;;;;5076437;28;20444;-77
2022/04/23 06:20:32;;;;;;;18.47;12.50;;;8.80;1.00;;;;;;5074688;28;20510;-78
2022/04/23 06:22:59;;;;;;;15.03;12.07;;;9.20;1.00;;;;;;5073871;28;20969;-78
2022/04/23 06:25:26;;;;;;;13.60;11.70;;;9.30;1.00;;;;;;5074010;28;20495;-78
2022/04/23 06:27:53;;;;;;;12.70;11.37;;;9.40;1.00;;;;;;5074894;28;20479;-78
2022/04/23 06:30:21;;;;;;;12.80;11.17;;;9.50;1.00;;;;;;5079839;28;20483;-78
2022/04/23 06:32:48;;;;;;;12.03;10.80;;;9.50;1.00;;;;;;5074963;28;20453;-77
2022/04/23 06:35:15;;;;;;;12.33;11.03;;;;;;;;;;5106234;22;20496;-83
2022/04/23 06:37:43;;;;;;;13.80;11.77;;;9.70;99.90;;;;;;5092424;28;20437;-83
2022/04/23 06:40:14;;;;;;;12.83;10.87;;;9.70;99.90;;;;;;5095251;28;20440;-84
2022/04/23 06:42:41;;;;;;;13.37;11.97;;;9.80;99.90;;;;;;5095083;28;20475;-83
2022/04/23 06:45:08;;;;;;;12.50;11.20;;;9.40;99.90;;;;;;5097486;28;20439;-83
2022/04/23 06:47:36;;;;;;;13.57;11.93;;;10.40;99.90;;;;;;5097899;28;20472;-82
2022/04/23 06:50:04;;;;;;;13.63;10.60;;;11.50;99.90;;;;;;5097039;28;20432;-83
2022/04/23 06:52:31;;;;;;;14.33;11.60;;;;;;;;;;5082086;28;20469;-84
2022/04/23 06:54:58;;;;;;;11.00;9.90;;;;;;;;;;5079839;28;20495;-84
2022/04/23 06:57:25;;;;;;;11.10;9.67;;;10.30;23.80;;;;;;5082024;28;20474;-83
2022/04/23 06:59:53;;;;;;;12.23;9.80;;;;;;;;;;5083458;28;20437;-83
2022/04/23 07:02:20;;;;;;;11.80;10.07;;;10.50;1.00;;;;;;5082052;28;20433;-84
2022/04/23 07:04:50;;;;;;;10.63;9.63;;;10.70;9.20;;;;;;5087891;28;20520;-84
2022/04/23 07:07:16;;;;;;;10.40;9.20;;;10.70;1.00;;;;;;5082470;28;20445;-84
2022/04/23 07:09:43;;;;;;;11.17;10.07;;;10.80;1.00;;;;;;5085941;28;20448;-85
2022/04/23 07:12:11;;;;;;;11.17;9.93;;;10.90;1.00;;;;;;5089367;28;20437;-84
2022/04/23 07:14:39;;;;;;;11.40;10.20;;;;;;;;;;5093534;28;20492;-85
2022/04/23 07:17:06;;;;;;;10.97;9.90;;;11.20;1.00;;;;;;5096855;28;20485;-83
2022/04/23 07:19:33;;;;;;;11.47;10.07;;;11.00;1.00;;;;;;5096732;28;20404;-85
2022/04/23 07:22:03;;;;;;;10.27;9.23;;;11.00;1.00;;;;;;5090699;28;20512;-84
2022/04/23 07:24:30;;;;;;;10.70;9.70;;;11.10;1.00;;;;;;5086129;28;20449;-84
2022/04/23 07:26:59;;;;;;;10.37;9.37;;;11.20;1.00;;;;;;5084228;28;20469;-84
2022/04/23 07:29:26;;;;;;;9.30;8.43;;;11.30;1.00;;;;;;5090035;28;20459;-82
2022/04/23 07:31:52;;;;;;;8.03;7.30;;;11.40;1.00;;;;;;5089486;28;20437;-83
2022/04/23 07:39:49;;;;;;;10.97;8.63;;;11.50;1.00;;;;;;5083465;28;20785;-84
2022/04/23 07:42:16;;;;;;;8.13;7.33;;;11.60;1.00;;;;;;5083167;28;20433;-84
2022/04/23 07:44:43;;;;;;;8.73;7.90;;;11.60;1.00;;;;;;5081733;28;20447;-84
2022/04/23 07:47:10;;;;;;;9.47;8.57;;;11.80;1.00;;;;;;5082813;28;20522;-85
2022/04/23 07:49:37;;;;;;;10.43;9.40;;;11.80;1.00;;;;;;5084686;28;20560;-84
2022/04/23 07:52:06;;;;;;;10.00;8.87;;;11.90;1.00;;;;;;5082966;28;20445;-84
2022/04/23 07:54:32;;;;;;;9.83;8.47;;;11.90;1.00;;;;;;5083378;28;20452;-83
2022/04/23 07:56:59;;;;;;;8.70;7.90;;;11.90;1.00;;;;;;5080915;28;20841;-84
2022/04/23 07:59:29;;;;;;;10.63;9.30;;;12.10;1.00;;;;;;5082903;28;20510;-84
2022/04/23 08:01:56;;;;;;;9.87;8.90;;;12.10;1.00;;;;;;5082843;28;20448;-85
2022/04/23 08:04:29;;;;;;;9.43;8.43;;;12.60;1.00;;;;;;5094242;28;20460;-83
2022/04/23 08:07:01;;;;;;;9.40;8.50;;;12.40;1.00;;;;;;5093205;28;20528;-85
2022/04/23 08:09:37;;;;;;;10.87;9.77;;;12.60;1.00;;;;;;5089610;28;20464;-85
2022/04/23 08:12:09;;;;;;;10.03;9.00;;;12.60;1.00;;;;;;5087120;28;20436;-86
2022/04/23 08:14:39;;;;;;;10.10;9.00;;;;;;;;;;5087647;28;20498;-84
2022/04/23 08:17:06;;;;;;;10.30;9.40;;;12.50;1.00;;;;;;5089179;28;20480;-84
2022/04/23 08:19:34;;;;;;;9.03;8.17;;;;;;;;;;5087665;28;20447;-83
2022/04/23 08:22:04;;;;;;;9.40;8.50;;;12.60;1.00;;;;;;5085777;28;20511;-84
2022/04/23 08:24:34;;;;;;;10.07;8.30;;;12.70;1.00;;;;;;5086248;28;20448;-83
2022/04/23 08:27:01;;;;;;;9.90;8.73;;;;;;;;;;5085614;28;20471;-85
2022/04/23 08:35:02;;;;;;;10.63;9.30;;;;;;;;;;5090860;28;20472;-83
2022/04/23 08:37:29;;;;;;;9.67;8.70;;;;;;;;;;5096814;28;20541;-82
2022/04/23 08:40:12;;;;;;;8.70;7.80;;;13.40;1.00;;;;;;5096092;28;20454;-84
2022/04/23 08:42:39;;;;;;;7.97;7.27;;;;;;;;;;5095783;28;20463;-84
2022/04/23 08:45:19;;;;;;;8.20;7.50;;;13.60;1.00;;;;;;5099570;28;20447;-84
2022/04/23 08:47:48;;;;;;;8.90;8.10;;;13.30;1.00;;;;;;5098376;28;20448;-84
2022/04/23 08:50:17;;;;;;;8.43;7.60;;;13.40;1.00;;;;;;5090914;28;20438;-83
2022/04/23 08:52:49;;;;;;;10.20;7.80;;;14.80;1.00;;;;;;5091443;28;20429;-83
2022/04/23 08:55:29;;;;;;;8.33;7.53;;;13.20;1.00;;;;;;5091400;28;20469;-86
2022/04/23 08:57:57;;;;;;;8.77;7.60;;;;;;;;;;5089958;28;20441;-84
2022/04/23 09:00:31;;;;;;;14.70;7.67;;;;;;;;;;5088520;28;20477;-84
2022/04/23 09:02:59;;;;;;;8.63;7.77;;;;;;;;;;5087324;28;20440;-83
2022/04/23 09:05:27;;;;;;;8.80;8.00;;;;;;;;;;5090417;28;20467;-84
2022/04/23 09:07:58;;;;;;;8.23;7.53;;;14.00;99.90;;;;;;5098059;28;20433;-84
2022/04/23 09:10:45;;;;;;;7.40;6.70;;;13.80;99.90;;;;;;5097061;28;20422;-83
2022/04/23 09:13:12;;;;;;;7.50;6.80;;;14.10;99.90;;;;;;5092029;28;20441;-83
2022/04/23 09:24:10;;;;;;;8.90;8.00;;;14.20;99.90;;;;;;5086684;28;20422;-82
2022/04/23 09:26:41;;;;;;;8.50;7.70;;;14.20;99.90;;;;;;5084483;28;20503;-84
2022/04/23 09:29:15;;;;;;;7.67;7.03;;;14.20;99.90;;;;;;5083943;28;20520;-84
2022/04/23 09:31:41;;;;;;;8.30;7.50;;;14.30;99.90;;;;;;5083300;28;20467;-84
2022/04/23 09:34:16;;;;;;;7.73;7.03;;;14.10;99.90;;;;;;5081212;28;20548;-83
2022/04/23 09:36:50;;;;;;;8.30;7.50;;;14.30;99.90;;;;;;5087577;28;20510;-83
2022/04/23 09:39:29;;;;;;;8.57;7.33;;;14.40;99.90;;;;;;5080876;28;20448;-83
2022/04/23 09:42:20;;;;;;;7.43;6.83;;;14.40;99.90;;;;;;5097851;28;20433;-83
2022/04/23 09:44:47;;;;;;;7.97;7.27;;;14.40;99.90;;;;;;5098311;28;20585;-81
2022/04/23 09:47:29;;;;;;;7.73;6.93;;;14.60;99.90;;;;;;5097161;28;20466;-83
2022/04/23 09:49:59;;;;;;;8.60;7.80;;;14.70;1.00;;;;;;5095078;28;20426;-84
2022/04/23 09:52:29;;;;;;;8.57;7.67;;;14.60;99.90;;;;;;5084630;28;20984;-83
2022/04/23 09:54:57;;;;;;;8.00;7.30;;;14.60;99.90;;;;;;5083015;28;20533;-84
2022/04/23 09:57:25;;;;;;;9.47;8.57;;;15.00;99.90;;;;;;5083449;28;20512;-84
2022/04/23 09:59:52;;;;;;;9.17;8.27;;;14.60;99.90;;;;;;5081705;28;20473;-84
2022/04/23 10:02:20;;;;;;;8.27;7.47;;;14.50;99.90;;;;;;5082185;28;20442;-84
2022/04/23 10:04:47;;;;;;;7.57;6.87;;;14.40;99.90;;;;;;5081746;28;20456;-84
2022/04/23 10:07:17;;;;;;;7.77;6.60;;;14.60;99.90;;;;;;5081278;28;20496;-82
2022/04/23 10:09:46;;;;;;;7.40;6.80;;;14.80;99.90;;;;;;5080786;28;20923;-83
2022/04/23 10:12:17;;;;;;;9.10;6.23;;;15.10;99.90;;;;;;5081954;28;20465;-84
2022/04/23 10:14:50;;;;;;;7.30;6.60;;;15.00;99.90;;;;;;5082050;28;20435;-84
2022/04/23 10:17:20;;;;;;;8.10;7.30;;;15.10;99.90;;;;;;5083352;28;20523;-84
2022/04/23 10:19:48;;;;;;;8.63;7.47;;;15.20;99.90;;;;;;5090250;28;20456;-83
2022/04/23 10:22:21;;;;;;;7.03;6.40;;;15.30;99.90;;;;;;5089557;28;20452;-84
2022/04/23 10:25:02;;;;;;;5.77;5.27;;;15.20;99.90;;;;;;5092202;28;20455;-82
2022/04/23 10:27:29;;;;;;;5.73;5.27;;;15.20;99.90;;;;;;5092366;28;20449;-85
2022/04/23 10:30:02;;;;;;;6.87;6.27;;;15.50;99.90;;;;;;5094353;28;20448;-83
2022/04/23 10:32:38;;;;;;;6.70;6.20;;;15.60;99.90;;;;;;5096665;28;20442;-82
2022/04/23 10:35:35;;;;;;;6.27;5.63;;;15.50;1.00;;;;;;5095495;28;20424;-83
2022/04/23 10:38:23;;;;;;;7.40;6.70;;;15.70;99.90;;;;;;5097684;28;20440;-84
2022/04/23 10:40:53;;;;;;;8.37;7.60;;;15.50;99.90;;;;;;5095464;28;20420;-84
2022/04/23 10:43:19;;;;;;;9.90;6.80;;;15.40;99.90;;;;;;5090525;28;20448;-84
2022/04/23 10:45:48;;;;;;;6.67;6.07;;;15.60;99.90;;;;;;5086786;28;20506;-84
2022/04/23 10:48:26;;;;;;;7.77;7.03;;;15.50;99.90;;;;;;5093185;28;20460;-85
2022/04/23 10:51:16;;;;;;;8.13;7.13;;;15.60;99.90;;;;;;5087866;28;20474;-84
2022/04/23 10:53:55;;;;;;;7.40;6.80;;;15.60;99.90;;;;;;5086611;28;20444;-85
2022/04/23 10:56:23;;;;;;;5.83;5.33;;;15.60;99.90;;;;;;5085409;28;20480;-85
2022/04/23 10:58:50;;;;;;;6.80;6.20;;;15.90;99.90;;;;;;5084097;28;20443;-84
2022/04/23 11:01:50;;;;;;;6.03;5.50;;;16.00;99.90;;;;;;5081372;28;20491;-83
2022/04/23 11:04:20;;;;;;;6.80;6.20;;;16.30;99.90;;;;;;5040907;28;20427;-83
2022/04/23 11:12:32;;;;;;;6.23;5.70;;;16.20;99.90;;;;;;5087473;28;20481;-82
2022/04/23 11:15:00;;;;;;;5.07;4.63;;;15.90;99.90;;;;;;5086744;28;20432;-84
2022/04/23 11:17:58;;;;;;;5.10;4.80;;;15.90;99.90;;;;;;5083191;28;20476;-84
2022/04/23 11:20:29;;;;;;;5.57;5.03;;;16.10;99.90;;;;;;5082002;28;20432;-83
2022/04/23 11:22:57;;;;;;;6.10;5.60;;;16.20;99.90;;;;;;5080490;28;20446;-84
2022/04/23 11:25:24;;;;;;;5.70;5.20;;;16.20;99.90;;;;;;5081746;28;20472;-85
2022/04/23 11:27:51;;;;;;;5.33;4.93;;;16.20;99.90;;;;;;5080694;28;20959;-83
2022/04/23 11:30:28;;;;;;;5.57;5.13;;;16.20;99.90;;;;;;5080653;28;20477;-83
2022/04/23 11:33:10;;;;;;;5.00;4.57;;;16.30;99.90;;;;;;5081301;28;20899;-83
2022/04/23 11:35:37;;;;;;;5.33;4.93;;;16.20;99.90;;;;;;5082509;28;20502;-84
2022/04/23 11:38:04;;;;;;;7.10;4.90;;;16.20;99.90;;;;;;5082354;28;20448;-85
2022/04/23 11:40:35;;;;;;;5.30;4.90;;;16.00;99.90;;;;;;5082061;28;20456;-84
2022/04/23 11:43:01;;;;;;;5.50;5.10;;;16.10;99.90;;;;;;5082213;28;20482;-84
2022/04/23 11:45:28;;;;;;;5.20;4.80;;;16.40;99.90;;;;;;5083367;28;20518;-84
2022/04/23 11:47:56;;;;;;;5.50;5.10;;;16.70;99.90;;;;;;5083533;28;20514;-83
2022/04/23 11:50:23;;;;;;;5.77;4.43;;;17.00;99.90;;;;;;5088225;28;20452;-84
2022/04/23 11:52:59;;;;;;;5.47;5.07;;;17.00;99.90;;;;;;5093659;28;20479;-84
2022/04/23 11:55:27;;;;;;;5.73;5.20;;;17.10;99.90;;;;;;5098314;28;20468;-84
2022/04/23 11:57:55;;;;;;;5.83;5.23;;;17.20;99.90;;;;;;5098198;28;20472;-84
2022/04/23 12:00:22;;;;;;;5.23;4.77;;;17.50;99.90;;;;;;5097376;28;20539;-84
2022/04/23 12:02:50;;;;;;;6.07;4.73;;;17.20;99.90;;;;;;5097838;28;20516;-84
2022/04/23 12:05:24;;;;;;;5.47;5.07;;;17.30;99.90;;;;;;5094107;28;20524;-84
2022/04/23 12:07:52;;;;;;;4.83;4.43;;;17.00;99.90;;;;;;5089821;28;20475;-84
2022/04/23 12:10:25;;;;;;;5.37;4.97;;;16.80;99.90;;;;;;5086077;28;20433;-84
2022/04/23 12:12:52;;;;;;;6.03;5.20;;;16.90;99.90;;;;;;5084569;28;20433;-84
2022/04/23 12:15:23;;;;;;;5.70;4.53;;;16.90;99.90;;;;;;5091649;28;20476;-84
2022/04/23 12:17:51;;;;;;;5.17;4.87;;;17.40;99.90;;;;;;5099887;28;20460;-83
2022/04/23 12:20:20;;;;;;;4.87;4.43;;;17.30;99.90;;;;;;5096073;28;20441;-84
2022/04/23 12:22:59;;;;;;;4.73;4.40;;;17.50;99.90;;;;;;5084438;28;20552;-84
2022/04/23 12:25:34;;;;;;;4.23;3.83;;;17.20;99.90;;;;;;5086932;28;20479;-84
2022/04/23 12:28:02;;;;;;;4.37;4.10;;;17.40;99.90;;;;;;5086688;28;20535;-84
2022/04/23 12:41:41;;;;;;;5.40;4.90;;;17.80;99.90;;;;;;5146502;27;20402;-78
2022/04/23 12:44:17;;;;;;;5.00;4.60;;;17.40;99.90;;;;;;5153732;27;20513;-78
2022/04/23 12:47:02;;;;;;;4.07;3.77;;;17.50;99.90;;;;;;5157327;27;20450;-78
2022/04/23 12:49:46;;;;;;;5.90;4.27;;;17.60;99.90;;;;;;5153322;27;20431;-76
2022/04/23 12:52:20;;;;;;;5.90;5.50;;;17.60;99.90;;;;;;5143445;27;20485;-77
2022/04/23 12:55:14;;;;;;;5.80;5.30;;;17.40;99.90;;;;;;5140477;27;20434;-78
2022/04/23 12:57:42;;;;;;;5.43;5.03;;;17.40;99.90;;;;;;5137072;27;20493;-78
2022/04/23 13:00:16;;;;;;;7.07;5.60;;;17.30;99.90;;;;;;5137901;27;20438;-79
2022/04/23 13:02:47;;;;;;;5.07;4.57;;;17.30;99.90;;;;;;5140015;27;20500;-78
2022/04/23 13:05:14;;;;;;;5.33;4.93;;;;;;;;;;5138383;27;20462;-78
2022/04/23 13:10:27;;;;;;;5.57;5.17;;;17.60;99.90;;;;;;5139495;27;20471;-78
2022/04/23 13:12:54;;;;;;;6.07;5.47;;;;;;;;;;5139661;27;20416;-79
2022/04/23 13:15:22;;;;;;;6.10;5.50;;;17.40;99.90;;;;;;5138575;27;20507;-77
2022/04/23 13:17:49;;;;;;;6.70;6.10;;;;;;;;;;5136998;27;20486;-78
2022/04/23 13:20:18;;;;;;;6.07;5.67;;;17.00;99.90;;;;;;5137625;27;20869;-79
2022/04/23 13:22:45;;;;;;;6.20;5.60;;;16.80;99.90;;;;;;5138897;27;20450;-79
2022/04/23 13:25:15;;;;;;;6.37;5.80;;;16.70;99.90;;;;;;5139611;27;20821;-78
2022/04/23 13:27:44;;;;;;;6.03;5.53;;;16.70;99.90;;;;;;5138591;27;20462;-79
2022/04/23 13:30:12;;;;;;;6.47;5.87;;;16.70;99.90;;;;;;5138026;27;20446;-79
2022/04/23 13:32:39;;;;;;;5.70;5.20;;;17.10;99.90;;;;;;5137502;27;20472;-78
2022/04/23 13:35:08;;;;;;;9.40;6.67;;;17.40;99.90;;;;;;5138389;27;20537;-79
2022/04/23 13:37:35;;;;;;;6.73;5.77;;;17.60;99.90;;;;;;5138745;27;20485;-77
2022/04/23 13:40:02;;;;;;;6.30;5.37;;;17.60;99.90;;;;;;5137633;27;20429;-79